QTR679 FSIA-OTHH
Flight info
| Callsign | QTR679 |
|---|---|
| Flight time | 4h 2m |
| Altitude | 37000 |
| Route | DULMA1B DULMA T145 GEPAX DCT IMTIP/N0487F390 UM314 SUHIL R401 VELIK/N0484F400 R401 DOLFI P558 SODEX DCT UMIBU/N0490F340 P899 TOVOX |
| Aircraft | A359/H-SDE2E3GHIJ3J4J5LM1ORWXY/LB1D1 |
Departure
| Time | 2026-05-08 10:39 |
|---|---|
| Airport | Seychelles International Airport (FSIA) |
Arrival
| Time | 2026-05-08 14:42 |
|---|---|
| Airport | Hamad International Airport (OTHH) |
| Time | Latitude | Longitude | Altitude | Speed | Heading |
|---|---|---|---|---|---|
| 2026-05-08 10:29 | -4.67060 | 55.51240 | 27 ft | 0 kts | 216° |
| 2026-05-08 10:35 | -4.67050 | 55.51248 | 26 ft | 2 kts | 216° |
| 2026-05-08 10:36 | -4.67037 | 55.51257 | 25 ft | 3 kts | 230° |
| 2026-05-08 10:36 | -4.67028 | 55.51270 | 27 ft | 0 kts | 264° |
| 2026-05-08 10:36 | -4.67019 | 55.51235 | 27 ft | 10 kts | 292° |
| 2026-05-08 10:37 | -4.66974 | 55.51184 | 27 ft | 10 kts | 335° |
| 2026-05-08 10:37 | -4.66902 | 55.51162 | 27 ft | 11 kts | 339° |
| 2026-05-08 10:37 | -4.66840 | 55.51110 | 27 ft | 12 kts | 309° |
| 2026-05-08 10:37 | -4.66784 | 55.51041 | 27 ft | 13 kts | 323° |
| 2026-05-08 10:38 | -4.66706 | 55.51056 | 27 ft | 12 kts | 47° |
| 2026-05-08 10:38 | -4.66708 | 55.51117 | 29 ft | 9 kts | 118° |
| 2026-05-08 10:38 | -4.66765 | 55.51205 | 29 ft | 37 kts | 124° |
| 2026-05-08 10:38 | -4.67058 | 55.51627 | 28 ft | 105 kts | 124° |
| 2026-05-08 10:39 | -4.67575 | 55.52380 | 28 ft | 156 kts | 125° |
| 2026-05-08 10:39 | -4.68250 | 55.53386 | 199 ft | 188 kts | 124° |
| 2026-05-08 10:39 | -4.68996 | 55.54535 | 417 ft | 207 kts | 126° |
| 2026-05-08 10:39 | -4.69883 | 55.55780 | 688 ft | 232 kts | 126° |
| 2026-05-08 10:40 | -4.70525 | 55.56674 | 853 ft | 246 kts | 126° |
| 2026-05-08 10:40 | -4.71536 | 55.58084 | 1495 ft | 247 kts | 124° |
| 2026-05-08 10:40 | -4.72196 | 55.59657 | 2105 ft | 250 kts | 96° |
| 2026-05-08 10:40 | -4.71854 | 55.61359 | 2638 ft | 257 kts | 62° |
| 2026-05-08 10:41 | -4.70763 | 55.62782 | 3045 ft | 259 kts | 50° |
| 2026-05-08 10:41 | -4.69528 | 55.64131 | 3226 ft | 265 kts | 50° |
| 2026-05-08 10:41 | -4.68294 | 55.65509 | 3391 ft | 267 kts | 51° |
| 2026-05-08 10:41 | -4.67071 | 55.66918 | 3612 ft | 269 kts | 51° |
| 2026-05-08 10:42 | -4.65853 | 55.68350 | 4048 ft | 271 kts | 52° |
| 2026-05-08 10:42 | -4.64637 | 55.69796 | 4618 ft | 272 kts | 52° |
| 2026-05-08 10:42 | -4.63421 | 55.71250 | 5156 ft | 273 kts | 52° |
| 2026-05-08 10:42 | -4.62199 | 55.72717 | 5688 ft | 275 kts | 52° |
| 2026-05-08 10:43 | -4.60969 | 55.74197 | 6217 ft | 277 kts | 52° |
| 2026-05-08 10:43 | -4.59732 | 55.75685 | 6717 ft | 279 kts | 52° |
| 2026-05-08 10:43 | -4.58481 | 55.77192 | 7183 ft | 283 kts | 52° |
| 2026-05-08 10:43 | -4.57212 | 55.78709 | 7680 ft | 285 kts | 51° |
| 2026-05-08 10:44 | -4.55722 | 55.80037 | 8158 ft | 290 kts | 34° |
| 2026-05-08 10:44 | -4.53868 | 55.80850 | 8659 ft | 294 kts | 17° |
| 2026-05-08 10:44 | -4.51879 | 55.81259 | 9139 ft | 297 kts | 9° |
| 2026-05-08 10:44 | -4.49814 | 55.81467 | 9674 ft | 299 kts | 5° |
| 2026-05-08 10:45 | -4.47720 | 55.81573 | 10064 ft | 305 kts | 3° |
| 2026-05-08 10:45 | -4.45554 | 55.81646 | 10253 ft | 318 kts | 2° |
| 2026-05-08 10:45 | -4.43304 | 55.81725 | 10468 ft | 330 kts | 3° |
| 2026-05-08 10:45 | -4.40972 | 55.81824 | 10675 ft | 341 kts | 3° |
| 2026-05-08 10:46 | -4.38560 | 55.81948 | 10863 ft | 352 kts | 4° |
| 2026-05-08 10:46 | -4.36077 | 55.82091 | 11051 ft | 362 kts | 4° |
| 2026-05-08 10:46 | -4.33533 | 55.82245 | 11288 ft | 370 kts | 4° |
| 2026-05-08 10:46 | -4.30957 | 55.82405 | 11689 ft | 371 kts | 4° |
| 2026-05-08 10:47 | -4.28375 | 55.82565 | 12093 ft | 373 kts | 4° |
| 2026-05-08 10:47 | -4.25774 | 55.82726 | 12462 ft | 376 kts | 4° |
| 2026-05-08 10:47 | -4.23163 | 55.82888 | 12879 ft | 376 kts | 4° |
| 2026-05-08 10:47 | -4.20542 | 55.83049 | 13248 ft | 379 kts | 4° |
| 2026-05-08 10:48 | -4.17905 | 55.83211 | 13625 ft | 380 kts | 4° |
| 2026-05-08 10:48 | -4.15258 | 55.83373 | 13952 ft | 382 kts | 4° |
| 2026-05-08 10:48 | -4.12596 | 55.83536 | 14269 ft | 384 kts | 4° |
| 2026-05-08 10:48 | -4.09924 | 55.83700 | 14614 ft | 386 kts | 4° |
| 2026-05-08 10:49 | -4.07238 | 55.83864 | 14923 ft | 388 kts | 4° |
| 2026-05-08 10:49 | -4.04537 | 55.84030 | 15233 ft | 390 kts | 4° |
| 2026-05-08 10:49 | -4.01827 | 55.84196 | 15577 ft | 391 kts | 4° |
| 2026-05-08 10:49 | -3.99106 | 55.84362 | 15890 ft | 393 kts | 4° |
| 2026-05-08 10:50 | -3.96370 | 55.84530 | 16214 ft | 395 kts | 4° |
| 2026-05-08 10:50 | -3.93620 | 55.84698 | 16538 ft | 397 kts | 4° |
| 2026-05-08 10:50 | -3.90859 | 55.84867 | 16864 ft | 398 kts | 4° |
| 2026-05-08 10:50 | -3.88086 | 55.85037 | 17214 ft | 400 kts | 4° |
| 2026-05-08 10:51 | -3.85299 | 55.85208 | 17533 ft | 402 kts | 4° |
| 2026-05-08 10:51 | -3.82498 | 55.85380 | 17857 ft | 404 kts | 4° |
| 2026-05-08 10:51 | -3.79687 | 55.85551 | 18162 ft | 406 kts | 4° |
| 2026-05-08 10:51 | -3.76858 | 55.85725 | 18425 ft | 408 kts | 4° |
| 2026-05-08 10:52 | -3.74022 | 55.85899 | 18687 ft | 409 kts | 4° |
| 2026-05-08 10:52 | -3.71171 | 55.86073 | 18958 ft | 411 kts | 4° |
| 2026-05-08 10:52 | -3.68316 | 55.86248 | 19213 ft | 412 kts | 4° |
| 2026-05-08 10:52 | -3.65445 | 55.86423 | 19477 ft | 414 kts | 4° |
| 2026-05-08 10:53 | -3.62567 | 55.86600 | 19734 ft | 415 kts | 4° |
| 2026-05-08 10:53 | -3.59676 | 55.86777 | 19986 ft | 417 kts | 4° |
| 2026-05-08 10:53 | -3.56777 | 55.86954 | 20248 ft | 418 kts | 4° |
| 2026-05-08 10:53 | -3.53869 | 55.87132 | 20489 ft | 420 kts | 4° |
| 2026-05-08 10:54 | -3.50947 | 55.87311 | 20743 ft | 421 kts | 4° |
| 2026-05-08 10:54 | -3.48020 | 55.87490 | 20989 ft | 423 kts | 4° |
| 2026-05-08 10:54 | -3.45080 | 55.87670 | 21215 ft | 424 kts | 4° |
| 2026-05-08 10:54 | -3.42130 | 55.87850 | 21461 ft | 425 kts | 4° |
| 2026-05-08 10:55 | -3.39169 | 55.88032 | 21676 ft | 427 kts | 4° |
| 2026-05-08 10:55 | -3.36199 | 55.88213 | 21925 ft | 428 kts | 4° |
| 2026-05-08 10:55 | -3.33221 | 55.88395 | 22142 ft | 430 kts | 4° |
| 2026-05-08 10:55 | -3.30230 | 55.88578 | 22373 ft | 431 kts | 4° |
| 2026-05-08 10:56 | -3.27234 | 55.88761 | 22600 ft | 432 kts | 4° |
| 2026-05-08 10:56 | -3.24265 | 55.88943 | 22799 ft | 434 kts | 4° |
| 2026-05-08 10:56 | -3.21251 | 55.89127 | 23029 ft | 435 kts | 4° |
| 2026-05-08 10:56 | -3.18225 | 55.89312 | 23205 ft | 437 kts | 4° |
| 2026-05-08 10:57 | -3.15188 | 55.89498 | 23433 ft | 438 kts | 4° |
| 2026-05-08 10:57 | -3.12140 | 55.89685 | 23586 ft | 440 kts | 3° |
| 2026-05-08 10:57 | -3.06022 | 55.90059 | 23922 ft | 441 kts | 4° |
| 2026-05-08 10:58 | -3.02948 | 55.90247 | 24082 ft | 443 kts | 4° |
| 2026-05-08 10:58 | -2.99871 | 55.90435 | 24265 ft | 444 kts | 4° |
| 2026-05-08 10:58 | -2.96785 | 55.90623 | 24415 ft | 445 kts | 4° |
| 2026-05-08 10:58 | -2.93689 | 55.90813 | 24586 ft | 446 kts | 4° |
| 2026-05-08 10:59 | -2.90588 | 55.91002 | 24744 ft | 447 kts | 4° |
| 2026-05-08 10:59 | -2.87478 | 55.91192 | 24902 ft | 448 kts | 4° |
| 2026-05-08 10:59 | -2.84364 | 55.91383 | 25070 ft | 449 kts | 4° |
| 2026-05-08 10:59 | -2.81239 | 55.91574 | 25218 ft | 450 kts | 4° |
| 2026-05-08 11:00 | -2.78110 | 55.91765 | 25392 ft | 451 kts | 4° |
| 2026-05-08 11:00 | -2.74971 | 55.91956 | 25542 ft | 452 kts | 4° |
| 2026-05-08 11:00 | -2.71827 | 55.92148 | 25717 ft | 453 kts | 4° |
| 2026-05-08 11:00 | -2.68677 | 55.92341 | 25864 ft | 455 kts | 4° |
| 2026-05-08 11:01 | -2.65519 | 55.92534 | 26024 ft | 455 kts | 4° |
| 2026-05-08 11:01 | -2.62352 | 55.92728 | 26180 ft | 457 kts | 4° |
| 2026-05-08 11:01 | -2.59177 | 55.92922 | 26328 ft | 458 kts | 4° |
| 2026-05-08 11:01 | -2.55992 | 55.93116 | 26502 ft | 459 kts | 4° |
| 2026-05-08 11:02 | -2.52803 | 55.93311 | 26646 ft | 460 kts | 4° |
| 2026-05-08 11:02 | -2.46388 | 55.93703 | 26922 ft | 463 kts | 4° |
| 2026-05-08 11:02 | -2.43168 | 55.93900 | 27097 ft | 464 kts | 4° |
| 2026-05-08 11:03 | -2.39943 | 55.94097 | 27255 ft | 465 kts | 4° |
| 2026-05-08 11:03 | -2.36706 | 55.94294 | 27411 ft | 466 kts | 4° |
| 2026-05-08 11:03 | -2.33464 | 55.94493 | 27581 ft | 467 kts | 4° |
| 2026-05-08 11:03 | -2.30261 | 55.94688 | 27716 ft | 469 kts | 4° |
| 2026-05-08 11:04 | -2.27002 | 55.94887 | 27886 ft | 470 kts | 4° |
| 2026-05-08 11:04 | -2.23733 | 55.95087 | 28041 ft | 471 kts | 4° |
| 2026-05-08 11:04 | -2.20457 | 55.95129 | 28198 ft | 472 kts | 357° |
| 2026-05-08 11:04 | -2.17184 | 55.94762 | 28351 ft | 474 kts | 352° |
| 2026-05-08 11:05 | -2.13924 | 55.94245 | 28488 ft | 475 kts | 351° |
| 2026-05-08 11:05 | -2.10666 | 55.93664 | 28661 ft | 476 kts | 350° |
| 2026-05-08 11:05 | -2.07406 | 55.93051 | 28804 ft | 477 kts | 349° |
| 2026-05-08 11:05 | -2.04137 | 55.92426 | 28956 ft | 479 kts | 349° |
| 2026-05-08 11:06 | -2.00864 | 55.91801 | 29109 ft | 480 kts | 349° |
| 2026-05-08 11:06 | -1.97579 | 55.91178 | 29257 ft | 481 kts | 349° |
| 2026-05-08 11:06 | -1.94285 | 55.90559 | 29409 ft | 482 kts | 349° |
| 2026-05-08 11:06 | -1.90983 | 55.89943 | 29562 ft | 484 kts | 350° |
| 2026-05-08 11:07 | -1.87672 | 55.89328 | 29765 ft | 484 kts | 350° |
| 2026-05-08 11:07 | -1.84362 | 55.88714 | 29981 ft | 484 kts | 350° |
| 2026-05-08 11:07 | -1.81048 | 55.88099 | 30099 ft | 485 kts | 349° |
| 2026-05-08 11:07 | -1.77723 | 55.87483 | 30244 ft | 486 kts | 350° |
| 2026-05-08 11:08 | -1.74395 | 55.86865 | 30403 ft | 487 kts | 350° |
| 2026-05-08 11:08 | -1.71056 | 55.86246 | 30525 ft | 488 kts | 350° |
| 2026-05-08 11:08 | -1.67714 | 55.85626 | 30710 ft | 489 kts | 350° |
| 2026-05-08 11:08 | -1.64367 | 55.85005 | 30853 ft | 490 kts | 349° |
| 2026-05-08 11:09 | -1.61014 | 55.84382 | 30998 ft | 491 kts | 350° |
| 2026-05-08 11:09 | -1.57655 | 55.83759 | 31186 ft | 491 kts | 349° |
| 2026-05-08 11:09 | -1.54290 | 55.83135 | 31289 ft | 493 kts | 349° |
| 2026-05-08 11:09 | -1.50914 | 55.82508 | 31441 ft | 494 kts | 350° |
| 2026-05-08 11:10 | -1.47540 | 55.81882 | 31595 ft | 494 kts | 349° |
| 2026-05-08 11:10 | -1.44153 | 55.81254 | 31700 ft | 496 kts | 350° |
| 2026-05-08 11:10 | -1.40764 | 55.80625 | 31864 ft | 496 kts | 350° |
| 2026-05-08 11:10 | -1.37368 | 55.79995 | 31997 ft | 496 kts | 349° |
| 2026-05-08 11:11 | -1.33967 | 55.79364 | 32108 ft | 498 kts | 350° |
| 2026-05-08 11:11 | -1.30564 | 55.78733 | 32270 ft | 498 kts | 349° |
| 2026-05-08 11:11 | -1.27153 | 55.78100 | 32346 ft | 500 kts | 350° |
| 2026-05-08 11:12 | -1.20340 | 55.76836 | 32536 ft | 502 kts | 350° |
| 2026-05-08 11:12 | -1.13453 | 55.75558 | 32745 ft | 504 kts | 350° |
| 2026-05-08 11:13 | -1.06540 | 55.74276 | 32936 ft | 506 kts | 350° |
| 2026-05-08 11:13 | -1.03083 | 55.73635 | 33114 ft | 505 kts | 350° |
| 2026-05-08 11:13 | -0.99627 | 55.72994 | 33251 ft | 505 kts | 350° |
| 2026-05-08 11:13 | -0.96166 | 55.72352 | 33392 ft | 506 kts | 350° |
| 2026-05-08 11:14 | -0.92711 | 55.71710 | 33628 ft | 503 kts | 350° |
| 2026-05-08 11:14 | -0.89288 | 55.71075 | 34003 ft | 498 kts | 350° |
| 2026-05-08 11:14 | -0.85889 | 55.70444 | 34195 ft | 497 kts | 351° |
| 2026-05-08 11:14 | -0.82483 | 55.69813 | 34320 ft | 498 kts | 350° |
| 2026-05-08 11:15 | -0.79072 | 55.69181 | 34423 ft | 499 kts | 350° |
| 2026-05-08 11:15 | -0.75660 | 55.68548 | 34620 ft | 498 kts | 351° |
| 2026-05-08 11:15 | -0.72256 | 55.67917 | 34767 ft | 498 kts | 350° |
| 2026-05-08 11:15 | -0.68842 | 55.67284 | 34907 ft | 499 kts | 351° |
| 2026-05-08 11:16 | -0.65432 | 55.66652 | 35095 ft | 498 kts | 351° |
| 2026-05-08 11:16 | -0.62022 | 55.66020 | 35212 ft | 499 kts | 351° |
| 2026-05-08 11:16 | -0.58605 | 55.65386 | 35321 ft | 500 kts | 350° |
| 2026-05-08 11:16 | -0.55181 | 55.64752 | 35511 ft | 500 kts | 350° |
| 2026-05-08 11:17 | -0.51766 | 55.64118 | 35710 ft | 499 kts | 351° |
| 2026-05-08 11:17 | -0.48358 | 55.63486 | 35914 ft | 498 kts | 350° |
| 2026-05-08 11:17 | -0.44951 | 55.62854 | 36095 ft | 498 kts | 351° |
| 2026-05-08 11:17 | -0.41547 | 55.62222 | 36267 ft | 497 kts | 351° |
| 2026-05-08 11:18 | -0.38145 | 55.61592 | 36455 ft | 497 kts | 350° |
| 2026-05-08 11:18 | -0.34746 | 55.60962 | 36634 ft | 497 kts | 351° |
| 2026-05-08 11:18 | -0.31351 | 55.60332 | 36809 ft | 496 kts | 351° |
| 2026-05-08 11:19 | -0.24536 | 55.59069 | 36860 ft | 499 kts | 351° |
| 2026-05-08 11:19 | -0.17695 | 55.57800 | 36859 ft | 500 kts | 350° |
| 2026-05-08 11:20 | -0.10854 | 55.56531 | 36859 ft | 500 kts | 350° |
| 2026-05-08 11:20 | -0.04008 | 55.55262 | 36859 ft | 500 kts | 351° |
| 2026-05-08 11:21 | 0.02833 | 55.53993 | 36860 ft | 499 kts | 351° |
| 2026-05-08 11:21 | 0.09657 | 55.52728 | 36859 ft | 498 kts | 351° |
| 2026-05-08 11:22 | 0.16464 | 55.51466 | 36859 ft | 496 kts | 351° |
| 2026-05-08 11:22 | 0.23235 | 55.50210 | 36859 ft | 495 kts | 351° |
| 2026-05-08 11:23 | 0.30004 | 55.48955 | 36858 ft | 495 kts | 350° |
| 2026-05-08 11:23 | 0.36775 | 55.47699 | 36859 ft | 495 kts | 351° |
| 2026-05-08 11:24 | 0.43544 | 55.46444 | 36862 ft | 495 kts | 351° |
| 2026-05-08 11:24 | 0.50262 | 55.45199 | 36862 ft | 495 kts | 351° |
| 2026-05-08 11:25 | 0.57032 | 55.43943 | 36862 ft | 495 kts | 351° |
| 2026-05-08 11:25 | 0.63801 | 55.42688 | 36858 ft | 495 kts | 351° |
| 2026-05-08 11:26 | 0.70595 | 55.41428 | 36863 ft | 498 kts | 351° |
| 2026-05-08 11:26 | 0.77416 | 55.40163 | 36862 ft | 499 kts | 351° |
| 2026-05-08 11:27 | 0.84245 | 55.38897 | 36862 ft | 499 kts | 351° |
| 2026-05-08 11:27 | 0.91071 | 55.37631 | 36862 ft | 499 kts | 351° |
| 2026-05-08 11:28 | 0.97898 | 55.36364 | 36862 ft | 499 kts | 351° |
| 2026-05-08 11:28 | 1.03579 | 55.35311 | 36862 ft | 500 kts | 351° |
| 2026-05-08 11:29 | 1.10417 | 55.34042 | 36862 ft | 500 kts | 351° |
| 2026-05-08 11:29 | 1.17303 | 55.32765 | 36862 ft | 500 kts | 351° |
| 2026-05-08 11:30 | 1.24090 | 55.31506 | 36860 ft | 500 kts | 351° |
| 2026-05-08 11:30 | 1.30933 | 55.30237 | 36862 ft | 501 kts | 351° |
| 2026-05-08 11:31 | 1.37844 | 55.29389 | 36860 ft | 500 kts | 356° |
| 2026-05-08 11:31 | 1.44783 | 55.28847 | 36859 ft | 500 kts | 357° |
| 2026-05-08 11:32 | 1.51726 | 55.28354 | 36858 ft | 500 kts | 357° |
| 2026-05-08 11:32 | 1.58669 | 55.27859 | 36859 ft | 500 kts | 357° |
| 2026-05-08 11:33 | 1.65613 | 55.27356 | 36859 ft | 501 kts | 357° |
| 2026-05-08 11:33 | 1.72566 | 55.26850 | 36859 ft | 501 kts | 357° |
| 2026-05-08 11:34 | 1.79515 | 55.26343 | 36860 ft | 501 kts | 357° |
| 2026-05-08 11:34 | 1.86462 | 55.25837 | 36859 ft | 501 kts | 357° |
| 2026-05-08 11:35 | 1.93420 | 55.25328 | 36859 ft | 502 kts | 358° |
| 2026-05-08 11:35 | 2.00387 | 55.24821 | 36859 ft | 502 kts | 358° |
| 2026-05-08 11:36 | 2.07362 | 55.24312 | 36859 ft | 503 kts | 358° |
| 2026-05-08 11:36 | 2.14336 | 55.23803 | 36859 ft | 502 kts | 358° |
| 2026-05-08 11:37 | 2.21311 | 55.23294 | 36859 ft | 503 kts | 358° |
| 2026-05-08 11:37 | 2.28297 | 55.22785 | 36862 ft | 504 kts | 358° |
| 2026-05-08 11:38 | 2.35285 | 55.22275 | 36859 ft | 504 kts | 358° |
| 2026-05-08 11:38 | 2.42278 | 55.21765 | 36859 ft | 504 kts | 358° |
| 2026-05-08 11:39 | 2.49227 | 55.21258 | 36858 ft | 504 kts | 358° |
| 2026-05-08 11:39 | 2.56225 | 55.20748 | 36859 ft | 505 kts | 358° |
| 2026-05-08 11:40 | 2.63241 | 55.20236 | 36859 ft | 506 kts | 358° |
| 2026-05-08 11:40 | 2.70260 | 55.19723 | 36859 ft | 506 kts | 358° |
| 2026-05-08 11:41 | 2.77281 | 55.19210 | 36859 ft | 506 kts | 358° |
| 2026-05-08 11:41 | 2.84300 | 55.18698 | 36859 ft | 506 kts | 358° |
| 2026-05-08 11:42 | 2.91319 | 55.18186 | 36860 ft | 506 kts | 358° |
| 2026-05-08 11:42 | 2.98340 | 55.17673 | 36859 ft | 506 kts | 358° |
| 2026-05-08 11:43 | 3.05359 | 55.17160 | 36858 ft | 506 kts | 358° |
| 2026-05-08 11:43 | 3.12378 | 55.16647 | 36859 ft | 506 kts | 358° |
| 2026-05-08 11:44 | 3.19405 | 55.16134 | 36853 ft | 506 kts | 357° |
| 2026-05-08 11:44 | 3.26432 | 55.15621 | 36853 ft | 506 kts | 357° |
| 2026-05-08 11:45 | 3.33460 | 55.15107 | 36854 ft | 506 kts | 357° |
| 2026-05-08 11:45 | 3.40488 | 55.14593 | 36856 ft | 506 kts | 357° |
| 2026-05-08 11:46 | 3.47517 | 55.14079 | 36856 ft | 506 kts | 357° |
| 2026-05-08 11:46 | 3.54546 | 55.13565 | 36856 ft | 506 kts | 357° |
| 2026-05-08 11:47 | 3.61572 | 55.13052 | 36856 ft | 506 kts | 357° |
| 2026-05-08 11:47 | 3.68601 | 55.12538 | 36856 ft | 506 kts | 357° |
| 2026-05-08 11:48 | 3.75582 | 55.12027 | 36857 ft | 506 kts | 357° |
| 2026-05-08 11:48 | 3.82623 | 55.11512 | 36857 ft | 508 kts | 357° |
| 2026-05-08 11:49 | 3.89673 | 55.10996 | 36856 ft | 508 kts | 357° |
| 2026-05-08 11:49 | 3.96728 | 55.10480 | 36856 ft | 508 kts | 357° |
| 2026-05-08 11:50 | 4.03783 | 55.09963 | 36856 ft | 508 kts | 357° |
| 2026-05-08 11:50 | 4.10843 | 55.09447 | 36857 ft | 510 kts | 357° |
| 2026-05-08 11:51 | 4.17942 | 55.08929 | 36857 ft | 512 kts | 357° |
| 2026-05-08 11:51 | 4.25054 | 55.08408 | 36854 ft | 512 kts | 357° |
| 2026-05-08 11:52 | 4.32162 | 55.07886 | 36857 ft | 512 kts | 357° |
| 2026-05-08 11:52 | 4.39278 | 55.07365 | 36851 ft | 512 kts | 357° |
| 2026-05-08 11:53 | 4.46395 | 55.06844 | 36854 ft | 513 kts | 357° |
| 2026-05-08 11:53 | 4.53524 | 55.06323 | 36854 ft | 513 kts | 357° |
| 2026-05-08 11:54 | 4.60645 | 55.05801 | 36854 ft | 513 kts | 357° |
| 2026-05-08 11:54 | 4.67773 | 55.05279 | 36854 ft | 513 kts | 357° |
| 2026-05-08 11:55 | 4.74901 | 55.04757 | 36852 ft | 514 kts | 357° |
| 2026-05-08 11:55 | 4.82037 | 55.04234 | 36851 ft | 514 kts | 357° |
| 2026-05-08 11:56 | 4.89122 | 55.03714 | 36849 ft | 514 kts | 357° |
| 2026-05-08 11:56 | 4.96258 | 55.03191 | 36847 ft | 514 kts | 357° |
| 2026-05-08 11:57 | 5.03391 | 55.02668 | 36849 ft | 514 kts | 357° |
| 2026-05-08 11:57 | 5.10517 | 55.02145 | 36846 ft | 513 kts | 357° |
| 2026-05-08 11:58 | 5.17639 | 55.01623 | 36845 ft | 513 kts | 357° |
| 2026-05-08 11:58 | 5.24759 | 55.01101 | 36847 ft | 513 kts | 357° |
| 2026-05-08 11:59 | 5.35435 | 55.00317 | 36846 ft | 511 kts | 357° |
| 2026-05-08 11:59 | 5.42515 | 54.99838 | 36851 ft | 509 kts | 360° |
| 2026-05-08 12:00 | 5.49584 | 54.99822 | 36851 ft | 508 kts | 2° |
| 2026-05-08 12:00 | 5.56655 | 54.99939 | 36851 ft | 508 kts | 2° |
| 2026-05-08 12:01 | 5.63726 | 54.99998 | 36849 ft | 508 kts | 2° |
| 2026-05-08 12:01 | 5.70785 | 55.00008 | 36848 ft | 507 kts | 2° |
| 2026-05-08 12:02 | 5.77841 | 55.00004 | 36842 ft | 507 kts | 2° |
| 2026-05-08 12:02 | 5.84895 | 55.00001 | 36846 ft | 507 kts | 2° |
| 2026-05-08 12:03 | 5.91950 | 55.00000 | 36848 ft | 507 kts | 2° |
| 2026-05-08 12:03 | 5.99001 | 55.00000 | 36848 ft | 506 kts | 2° |
| 2026-05-08 12:04 | 6.06045 | 55.00000 | 36848 ft | 506 kts | 2° |
| 2026-05-08 12:04 | 6.13089 | 55.00000 | 36848 ft | 506 kts | 2° |
| 2026-05-08 12:05 | 6.20136 | 55.00000 | 36847 ft | 506 kts | 2° |
| 2026-05-08 12:05 | 6.27180 | 55.00000 | 36845 ft | 506 kts | 1° |
| 2026-05-08 12:06 | 6.34222 | 55.00000 | 36846 ft | 506 kts | 2° |
| 2026-05-08 12:06 | 6.41263 | 55.00000 | 36845 ft | 506 kts | 2° |
| 2026-05-08 12:07 | 6.48256 | 55.00000 | 36848 ft | 506 kts | 1° |
| 2026-05-08 12:07 | 6.55300 | 55.00000 | 36848 ft | 506 kts | 1° |
| 2026-05-08 12:08 | 6.62341 | 55.00000 | 36848 ft | 506 kts | 2° |
| 2026-05-08 12:08 | 6.69380 | 55.00000 | 36848 ft | 506 kts | 2° |
| 2026-05-08 12:09 | 6.76419 | 55.00000 | 36842 ft | 506 kts | 2° |
| 2026-05-08 12:09 | 6.83456 | 55.00001 | 36843 ft | 506 kts | 2° |
| 2026-05-08 12:10 | 6.90500 | 55.00002 | 36840 ft | 506 kts | 1° |
| 2026-05-08 12:10 | 6.97545 | 55.00001 | 36843 ft | 506 kts | 1° |
| 2026-05-08 12:11 | 7.04582 | 55.00000 | 36843 ft | 506 kts | 1° |
| 2026-05-08 12:11 | 7.11626 | 55.00000 | 36842 ft | 506 kts | 1° |
| 2026-05-08 12:12 | 7.18666 | 55.00000 | 36843 ft | 506 kts | 1° |
| 2026-05-08 12:12 | 7.25699 | 55.00000 | 36840 ft | 505 kts | 1° |
| 2026-05-08 12:13 | 7.32722 | 55.00000 | 36840 ft | 505 kts | 1° |
| 2026-05-08 12:13 | 7.39754 | 55.00000 | 36842 ft | 505 kts | 1° |
| 2026-05-08 12:14 | 7.46779 | 55.00000 | 36838 ft | 505 kts | 1° |
| 2026-05-08 12:14 | 7.53805 | 55.00000 | 36843 ft | 504 kts | 1° |
| 2026-05-08 12:15 | 7.59636 | 55.00000 | 36845 ft | 504 kts | 1° |
| 2026-05-08 12:15 | 7.67795 | 55.00000 | 36846 ft | 504 kts | 1° |
| 2026-05-08 12:16 | 7.74813 | 55.00000 | 36843 ft | 504 kts | 1° |
| 2026-05-08 12:16 | 7.81831 | 55.00000 | 36843 ft | 504 kts | 1° |
| 2026-05-08 12:17 | 7.87702 | 55.00000 | 36842 ft | 504 kts | 1° |
| 2026-05-08 12:17 | 7.94714 | 55.00000 | 36843 ft | 504 kts | 1° |
| 2026-05-08 12:18 | 8.01722 | 55.00000 | 36843 ft | 504 kts | 1° |
| 2026-05-08 12:18 | 8.08729 | 55.00000 | 36842 ft | 503 kts | 1° |
| 2026-05-08 12:19 | 8.15734 | 55.00001 | 36843 ft | 503 kts | 1° |
| 2026-05-08 12:19 | 8.22735 | 55.00006 | 36843 ft | 503 kts | 1° |
| 2026-05-08 12:20 | 8.29687 | 55.00003 | 36843 ft | 503 kts | 1° |
| 2026-05-08 12:20 | 8.36684 | 55.00001 | 36843 ft | 503 kts | 1° |
| 2026-05-08 12:21 | 8.43687 | 55.00000 | 36843 ft | 503 kts | 1° |
| 2026-05-08 12:21 | 8.50691 | 55.00000 | 36840 ft | 504 kts | 1° |
| 2026-05-08 12:22 | 8.57700 | 55.00000 | 36843 ft | 504 kts | 1° |
| 2026-05-08 12:22 | 8.64709 | 55.00000 | 36842 ft | 504 kts | 1° |
| 2026-05-08 12:23 | 8.71718 | 55.00000 | 36842 ft | 504 kts | 1° |
| 2026-05-08 12:23 | 8.78742 | 55.00000 | 36843 ft | 505 kts | 1° |
| 2026-05-08 12:24 | 8.85772 | 55.00000 | 36843 ft | 505 kts | 1° |
| 2026-05-08 12:24 | 8.92798 | 55.00000 | 36842 ft | 505 kts | 1° |
| 2026-05-08 12:25 | 8.99827 | 55.00000 | 36845 ft | 505 kts | 1° |
| 2026-05-08 12:25 | 9.06854 | 55.00000 | 36845 ft | 505 kts | 1° |
| 2026-05-08 12:26 | 9.13877 | 55.00000 | 36845 ft | 505 kts | 1° |
| 2026-05-08 12:26 | 9.20903 | 55.00000 | 36845 ft | 505 kts | 1° |
| 2026-05-08 12:27 | 9.27928 | 55.00004 | 36845 ft | 505 kts | 1° |
| 2026-05-08 12:27 | 9.34953 | 55.00005 | 36845 ft | 505 kts | 0° |
| 2026-05-08 12:28 | 9.41979 | 55.00002 | 36845 ft | 505 kts | 0° |
| 2026-05-08 12:28 | 9.49001 | 55.00000 | 36845 ft | 505 kts | 0° |
| 2026-05-08 12:29 | 9.56023 | 55.00000 | 36845 ft | 505 kts | 0° |
| 2026-05-08 12:29 | 9.63049 | 55.00000 | 36845 ft | 505 kts | 0° |
| 2026-05-08 12:30 | 9.70072 | 55.00000 | 36848 ft | 505 kts | 0° |
| 2026-05-08 12:30 | 9.77097 | 55.00000 | 36848 ft | 505 kts | 0° |
| 2026-05-08 12:31 | 9.84122 | 55.00000 | 36845 ft | 505 kts | 0° |
| 2026-05-08 12:31 | 9.91097 | 55.00000 | 36845 ft | 505 kts | 0° |
| 2026-05-08 12:32 | 9.98171 | 55.00000 | 36846 ft | 505 kts | 0° |
| 2026-05-08 12:32 | 10.05152 | 55.00000 | 36845 ft | 505 kts | 0° |
| 2026-05-08 12:33 | 10.12184 | 55.00000 | 36845 ft | 505 kts | 0° |
| 2026-05-08 12:33 | 10.19214 | 55.00000 | 36843 ft | 505 kts | 0° |
| 2026-05-08 12:34 | 10.26245 | 55.00000 | 36842 ft | 505 kts | 0° |
| 2026-05-08 12:34 | 10.33276 | 55.00000 | 36845 ft | 505 kts | 0° |
| 2026-05-08 12:35 | 10.40311 | 55.00005 | 36845 ft | 505 kts | 0° |
| 2026-05-08 12:35 | 10.47341 | 55.00002 | 36845 ft | 505 kts | 0° |
| 2026-05-08 12:36 | 10.54374 | 55.00000 | 36848 ft | 505 kts | 0° |
| 2026-05-08 12:36 | 10.61408 | 55.00000 | 36848 ft | 506 kts | 0° |
| 2026-05-08 12:37 | 10.68444 | 55.00000 | 36849 ft | 506 kts | 0° |
| 2026-05-08 12:37 | 10.75482 | 55.00000 | 36848 ft | 506 kts | 0° |
| 2026-05-08 12:38 | 10.82517 | 55.00000 | 36847 ft | 506 kts | 0° |
| 2026-05-08 12:38 | 10.89557 | 55.00000 | 36848 ft | 506 kts | 0° |
| 2026-05-08 12:39 | 10.96601 | 55.00000 | 36848 ft | 506 kts | 0° |
| 2026-05-08 12:39 | 11.03645 | 55.00000 | 36848 ft | 506 kts | 0° |
| 2026-05-08 12:40 | 11.10691 | 55.00000 | 36848 ft | 506 kts | 0° |
| 2026-05-08 12:40 | 11.17738 | 55.00000 | 36848 ft | 507 kts | 0° |
| 2026-05-08 12:41 | 11.24792 | 55.00000 | 36845 ft | 507 kts | 0° |
| 2026-05-08 12:41 | 11.31850 | 55.00000 | 36845 ft | 507 kts | 0° |
| 2026-05-08 12:42 | 11.38905 | 55.00000 | 36845 ft | 507 kts | 0° |
| 2026-05-08 12:42 | 11.45963 | 55.00002 | 36845 ft | 507 kts | 0° |
| 2026-05-08 12:43 | 11.52979 | 55.00001 | 36846 ft | 508 kts | 0° |
| 2026-05-08 12:43 | 11.60045 | 55.00000 | 36845 ft | 508 kts | 0° |
| 2026-05-08 12:44 | 11.67112 | 55.00000 | 36845 ft | 508 kts | 0° |
| 2026-05-08 12:44 | 11.74176 | 55.00000 | 36844 ft | 508 kts | 0° |
| 2026-05-08 12:45 | 11.81250 | 55.00000 | 36846 ft | 508 kts | 0° |
| 2026-05-08 12:45 | 11.88325 | 55.00000 | 36845 ft | 509 kts | 0° |
| 2026-05-08 12:46 | 11.95405 | 55.00000 | 36842 ft | 509 kts | 0° |
| 2026-05-08 12:46 | 12.02465 | 55.00341 | 36843 ft | 508 kts | 6° |
| 2026-05-08 12:47 | 12.09500 | 55.01149 | 36842 ft | 509 kts | 7° |
| 2026-05-08 12:47 | 12.16533 | 55.02034 | 36843 ft | 509 kts | 7° |
| 2026-05-08 12:48 | 12.23521 | 55.02918 | 36843 ft | 510 kts | 7° |
| 2026-05-08 12:48 | 12.30561 | 55.03801 | 36843 ft | 509 kts | 7° |
| 2026-05-08 12:49 | 12.37596 | 55.04678 | 36842 ft | 510 kts | 7° |
| 2026-05-08 12:49 | 12.44642 | 55.05555 | 36843 ft | 510 kts | 7° |
| 2026-05-08 12:50 | 12.51684 | 55.06433 | 36842 ft | 510 kts | 7° |
| 2026-05-08 12:50 | 12.58730 | 55.07312 | 36842 ft | 510 kts | 7° |
| 2026-05-08 12:51 | 12.69294 | 55.08632 | 36843 ft | 510 kts | 7° |
| 2026-05-08 12:52 | 12.76337 | 55.09512 | 36842 ft | 510 kts | 7° |
| 2026-05-08 12:52 | 12.86905 | 55.10833 | 36843 ft | 510 kts | 7° |
| 2026-05-08 12:53 | 12.93950 | 55.11715 | 36842 ft | 510 kts | 7° |
| 2026-05-08 12:53 | 13.00993 | 55.12597 | 36843 ft | 510 kts | 7° |
| 2026-05-08 12:54 | 13.08036 | 55.13479 | 36843 ft | 510 kts | 7° |
| 2026-05-08 12:54 | 13.15081 | 55.14362 | 36843 ft | 510 kts | 7° |
| 2026-05-08 12:55 | 13.22125 | 55.15246 | 36842 ft | 510 kts | 7° |
| 2026-05-08 12:55 | 13.29172 | 55.16130 | 36843 ft | 510 kts | 7° |
| 2026-05-08 12:56 | 13.36214 | 55.17014 | 36843 ft | 510 kts | 7° |
| 2026-05-08 12:56 | 13.43260 | 55.17900 | 36843 ft | 510 kts | 7° |
| 2026-05-08 12:57 | 13.50302 | 55.18785 | 36842 ft | 510 kts | 7° |
| 2026-05-08 12:57 | 13.57346 | 55.19671 | 36840 ft | 510 kts | 7° |
| 2026-05-08 12:58 | 13.64390 | 55.20558 | 36840 ft | 510 kts | 7° |
| 2026-05-08 12:58 | 13.71388 | 55.21439 | 36840 ft | 510 kts | 7° |
| 2026-05-08 12:59 | 13.78429 | 55.22327 | 36840 ft | 510 kts | 7° |
| 2026-05-08 12:59 | 13.85474 | 55.23215 | 36840 ft | 510 kts | 7° |
| 2026-05-08 13:00 | 13.92513 | 55.24105 | 36844 ft | 510 kts | 7° |
| 2026-05-08 13:00 | 13.99562 | 55.24983 | 36842 ft | 510 kts | 7° |
| 2026-05-08 13:01 | 14.06612 | 55.25851 | 36840 ft | 510 kts | 7° |
| 2026-05-08 13:01 | 14.13656 | 55.26721 | 36838 ft | 510 kts | 7° |
| 2026-05-08 13:02 | 14.20701 | 55.27595 | 36841 ft | 510 kts | 7° |
| 2026-05-08 13:02 | 14.27748 | 55.28471 | 36840 ft | 510 kts | 7° |
| 2026-05-08 13:03 | 14.34797 | 55.29348 | 36840 ft | 510 kts | 7° |
| 2026-05-08 13:03 | 14.40657 | 55.30077 | 36841 ft | 510 kts | 7° |
| 2026-05-08 13:04 | 14.47707 | 55.30955 | 36839 ft | 510 kts | 7° |
| 2026-05-08 13:04 | 14.54748 | 55.31832 | 36841 ft | 509 kts | 7° |
| 2026-05-08 13:05 | 14.61783 | 55.32709 | 36841 ft | 509 kts | 7° |
| 2026-05-08 13:05 | 14.68820 | 55.33587 | 36839 ft | 509 kts | 7° |
| 2026-05-08 13:06 | 14.75853 | 55.34464 | 36839 ft | 509 kts | 7° |
| 2026-05-08 13:06 | 14.82889 | 55.35343 | 36840 ft | 509 kts | 7° |
| 2026-05-08 13:07 | 14.89924 | 55.36222 | 36840 ft | 509 kts | 7° |
| 2026-05-08 13:07 | 14.96957 | 55.37102 | 36840 ft | 509 kts | 7° |
| 2026-05-08 13:08 | 15.03994 | 55.37983 | 36840 ft | 509 kts | 7° |
| 2026-05-08 13:08 | 15.11027 | 55.38864 | 36840 ft | 509 kts | 6° |
| 2026-05-08 13:09 | 15.18015 | 55.39739 | 36839 ft | 509 kts | 6° |
| 2026-05-08 13:09 | 15.25051 | 55.40619 | 36840 ft | 509 kts | 6° |
| 2026-05-08 13:10 | 15.32090 | 55.41482 | 36839 ft | 509 kts | 6° |
| 2026-05-08 13:10 | 15.39127 | 55.42345 | 36840 ft | 509 kts | 6° |
| 2026-05-08 13:11 | 15.46163 | 55.43212 | 36841 ft | 509 kts | 6° |
| 2026-05-08 13:11 | 15.53202 | 55.44081 | 36840 ft | 509 kts | 6° |
| 2026-05-08 13:12 | 15.60236 | 55.44951 | 36840 ft | 509 kts | 6° |
| 2026-05-08 13:12 | 15.67274 | 55.45821 | 36840 ft | 509 kts | 6° |
| 2026-05-08 13:13 | 15.74308 | 55.46692 | 36843 ft | 509 kts | 6° |
| 2026-05-08 13:13 | 15.81347 | 55.47564 | 36843 ft | 509 kts | 6° |
| 2026-05-08 13:14 | 15.88383 | 55.48436 | 36844 ft | 509 kts | 6° |
| 2026-05-08 13:14 | 15.95420 | 55.49309 | 36842 ft | 509 kts | 6° |
| 2026-05-08 13:15 | 16.02453 | 55.50182 | 36845 ft | 509 kts | 6° |
| 2026-05-08 13:15 | 16.09433 | 55.51049 | 36844 ft | 509 kts | 6° |
| 2026-05-08 13:16 | 16.16468 | 55.51924 | 36842 ft | 509 kts | 6° |
| 2026-05-08 13:16 | 16.23500 | 55.52798 | 36843 ft | 509 kts | 6° |
| 2026-05-08 13:17 | 16.30529 | 55.53673 | 36842 ft | 508 kts | 6° |
| 2026-05-08 13:17 | 16.37550 | 55.54548 | 36843 ft | 508 kts | 6° |
| 2026-05-08 13:18 | 16.44575 | 55.55424 | 36842 ft | 508 kts | 6° |
| 2026-05-08 13:18 | 16.51595 | 55.56300 | 36842 ft | 508 kts | 6° |
| 2026-05-08 13:19 | 16.58616 | 55.57176 | 36843 ft | 508 kts | 6° |
| 2026-05-08 13:19 | 16.65636 | 55.58053 | 36843 ft | 508 kts | 6° |
| 2026-05-08 13:20 | 16.72649 | 55.58930 | 36841 ft | 508 kts | 6° |
| 2026-05-08 13:20 | 16.79676 | 55.59809 | 36842 ft | 511 kts | 6° |
| 2026-05-08 13:21 | 16.86798 | 55.60701 | 36844 ft | 519 kts | 6° |
| 2026-05-08 13:21 | 16.94000 | 55.61609 | 36837 ft | 523 kts | 6° |
| 2026-05-08 13:22 | 17.01221 | 55.62527 | 36838 ft | 523 kts | 6° |
| 2026-05-08 13:22 | 17.08437 | 55.63446 | 36838 ft | 523 kts | 6° |
| 2026-05-08 13:23 | 17.15655 | 55.64364 | 36837 ft | 522 kts | 6° |
| 2026-05-08 13:23 | 17.22866 | 55.65282 | 36837 ft | 522 kts | 6° |
| 2026-05-08 13:24 | 17.30081 | 55.66201 | 36834 ft | 522 kts | 6° |
| 2026-05-08 13:24 | 17.37291 | 55.67120 | 36835 ft | 522 kts | 6° |
| 2026-05-08 13:25 | 17.44500 | 55.68040 | 36838 ft | 522 kts | 6° |
| 2026-05-08 13:25 | 17.51705 | 55.68960 | 36835 ft | 522 kts | 6° |
| 2026-05-08 13:26 | 17.58907 | 55.69880 | 36837 ft | 521 kts | 6° |
| 2026-05-08 13:26 | 17.66111 | 55.70802 | 36840 ft | 521 kts | 6° |
| 2026-05-08 13:27 | 17.73313 | 55.71724 | 36843 ft | 522 kts | 5° |
| 2026-05-08 13:27 | 17.80485 | 55.72643 | 36844 ft | 523 kts | 5° |
| 2026-05-08 13:28 | 17.87717 | 55.73569 | 36846 ft | 524 kts | 6° |
| 2026-05-08 13:28 | 17.94948 | 55.74497 | 36846 ft | 524 kts | 6° |
| 2026-05-08 13:29 | 18.02113 | 55.75932 | 36848 ft | 525 kts | 12° |
| 2026-05-08 13:29 | 18.09216 | 55.77759 | 36845 ft | 526 kts | 13° |
| 2026-05-08 13:30 | 18.16309 | 55.79653 | 36845 ft | 525 kts | 13° |
| 2026-05-08 13:30 | 18.23391 | 55.81544 | 36839 ft | 525 kts | 13° |
| 2026-05-08 13:31 | 18.30478 | 55.83428 | 36841 ft | 525 kts | 13° |
| 2026-05-08 13:31 | 18.37561 | 55.85308 | 36834 ft | 525 kts | 13° |
| 2026-05-08 13:32 | 18.44639 | 55.87187 | 36834 ft | 524 kts | 13° |
| 2026-05-08 13:32 | 18.51715 | 55.89067 | 36831 ft | 524 kts | 13° |
| 2026-05-08 13:33 | 18.58789 | 55.90949 | 36826 ft | 524 kts | 13° |
| 2026-05-08 13:33 | 18.65817 | 55.92820 | 36826 ft | 524 kts | 13° |
| 2026-05-08 13:34 | 18.72894 | 55.94706 | 36821 ft | 524 kts | 13° |
| 2026-05-08 13:34 | 18.80017 | 55.96606 | 36815 ft | 525 kts | 13° |
| 2026-05-08 13:35 | 18.87093 | 55.98495 | 36815 ft | 525 kts | 13° |
| 2026-05-08 13:35 | 18.94173 | 56.00386 | 36810 ft | 524 kts | 13° |
| 2026-05-08 13:36 | 19.01194 | 56.02267 | 36810 ft | 524 kts | 13° |
| 2026-05-08 13:36 | 19.08269 | 56.04161 | 36801 ft | 524 kts | 13° |
| 2026-05-08 13:37 | 19.15339 | 56.06054 | 36804 ft | 524 kts | 13° |
| 2026-05-08 13:37 | 19.22408 | 56.07950 | 36805 ft | 524 kts | 13° |
| 2026-05-08 13:38 | 19.29480 | 56.09848 | 36799 ft | 524 kts | 13° |
| 2026-05-08 13:38 | 19.36554 | 56.11749 | 36799 ft | 524 kts | 13° |
| 2026-05-08 13:39 | 19.43627 | 56.13652 | 36796 ft | 524 kts | 13° |
| 2026-05-08 13:39 | 19.50700 | 56.15556 | 36796 ft | 524 kts | 13° |
| 2026-05-08 13:40 | 19.57774 | 56.17462 | 36796 ft | 525 kts | 13° |
| 2026-05-08 13:40 | 19.64851 | 56.19371 | 36793 ft | 525 kts | 13° |
| 2026-05-08 13:41 | 19.71926 | 56.21281 | 36793 ft | 525 kts | 13° |
| 2026-05-08 13:41 | 19.79006 | 56.23194 | 36793 ft | 525 kts | 13° |
| 2026-05-08 13:42 | 19.86083 | 56.25107 | 36793 ft | 525 kts | 13° |
| 2026-05-08 13:42 | 19.93163 | 56.27024 | 36790 ft | 525 kts | 13° |
| 2026-05-08 13:43 | 20.00357 | 56.28032 | 36791 ft | 521 kts | 0° |
| 2026-05-08 13:43 | 20.07613 | 56.28169 | 36790 ft | 521 kts | 358° |
| 2026-05-08 13:44 | 20.14865 | 56.28161 | 36793 ft | 521 kts | 358° |
| 2026-05-08 13:44 | 20.22116 | 56.28148 | 36788 ft | 521 kts | 358° |
| 2026-05-08 13:45 | 20.29368 | 56.28155 | 36790 ft | 521 kts | 358° |
| 2026-05-08 13:45 | 20.36618 | 56.28172 | 36785 ft | 521 kts | 358° |
| 2026-05-08 13:46 | 20.43871 | 56.28192 | 36782 ft | 521 kts | 358° |
| 2026-05-08 13:46 | 20.51123 | 56.28211 | 36782 ft | 521 kts | 358° |
| 2026-05-08 13:47 | 20.58345 | 56.27789 | 36782 ft | 519 kts | 352° |
| 2026-05-08 13:47 | 20.65465 | 56.26835 | 36782 ft | 519 kts | 350° |
| 2026-05-08 13:48 | 20.72619 | 56.25788 | 36785 ft | 519 kts | 350° |
| 2026-05-08 13:48 | 20.79600 | 56.24759 | 36785 ft | 519 kts | 350° |
| 2026-05-08 13:49 | 20.86759 | 56.23714 | 36782 ft | 519 kts | 350° |
| 2026-05-08 13:49 | 20.93918 | 56.22674 | 36784 ft | 519 kts | 350° |
| 2026-05-08 13:50 | 21.01080 | 56.21634 | 36785 ft | 519 kts | 350° |
| 2026-05-08 13:50 | 21.08245 | 56.20593 | 36785 ft | 519 kts | 350° |
| 2026-05-08 13:51 | 21.15408 | 56.19550 | 36782 ft | 519 kts | 350° |
| 2026-05-08 13:51 | 21.22569 | 56.18506 | 36783 ft | 520 kts | 350° |
| 2026-05-08 13:52 | 21.28526 | 56.17639 | 36785 ft | 520 kts | 350° |
| 2026-05-08 13:52 | 21.35697 | 56.16594 | 36784 ft | 520 kts | 350° |
| 2026-05-08 13:53 | 21.42861 | 56.15538 | 36784 ft | 520 kts | 350° |
| 2026-05-08 13:53 | 21.50032 | 56.14482 | 36781 ft | 520 kts | 350° |
| 2026-05-08 13:54 | 21.57200 | 56.13427 | 36786 ft | 520 kts | 350° |
| 2026-05-08 13:54 | 21.64367 | 56.12372 | 36786 ft | 520 kts | 350° |
| 2026-05-08 13:55 | 21.71538 | 56.11316 | 36786 ft | 520 kts | 350° |
| 2026-05-08 13:56 | 21.82292 | 56.09730 | 36781 ft | 520 kts | 350° |
| 2026-05-08 13:56 | 21.89462 | 56.08671 | 36782 ft | 520 kts | 350° |
| 2026-05-08 13:57 | 21.96632 | 56.07611 | 36775 ft | 520 kts | 350° |
| 2026-05-08 13:57 | 22.03807 | 56.06551 | 36776 ft | 520 kts | 350° |
| 2026-05-08 13:58 | 22.10947 | 56.05352 | 36774 ft | 518 kts | 345° |
| 2026-05-08 13:58 | 22.17623 | 56.02590 | 36770 ft | 512 kts | 328° |
| 2026-05-08 13:59 | 22.23147 | 55.97853 | 36769 ft | 507 kts | 312° |
| 2026-05-08 13:59 | 22.27858 | 55.92212 | 36767 ft | 506 kts | 308° |
| 2026-05-08 14:00 | 22.32393 | 55.86406 | 36767 ft | 506 kts | 308° |
| 2026-05-08 14:00 | 22.36943 | 55.80609 | 36774 ft | 506 kts | 308° |
| 2026-05-08 14:01 | 22.41526 | 55.74843 | 36772 ft | 506 kts | 308° |
| 2026-05-08 14:01 | 22.46123 | 55.69081 | 36767 ft | 506 kts | 308° |
| 2026-05-08 14:02 | 22.50720 | 55.63317 | 36768 ft | 506 kts | 308° |
| 2026-05-08 14:02 | 22.55313 | 55.57549 | 36765 ft | 506 kts | 308° |
| 2026-05-08 14:03 | 22.59904 | 55.51774 | 36766 ft | 506 kts | 308° |
| 2026-05-08 14:03 | 22.64492 | 55.45997 | 36763 ft | 506 kts | 308° |
| 2026-05-08 14:04 | 22.69081 | 55.40211 | 36767 ft | 506 kts | 308° |
| 2026-05-08 14:04 | 22.73668 | 55.34422 | 36765 ft | 507 kts | 308° |
| 2026-05-08 14:05 | 22.78223 | 55.28665 | 36762 ft | 507 kts | 308° |
| 2026-05-08 14:05 | 22.82838 | 55.22829 | 36761 ft | 506 kts | 308° |
| 2026-05-08 14:06 | 22.87421 | 55.17025 | 36769 ft | 507 kts | 308° |
| 2026-05-08 14:06 | 22.91973 | 55.11254 | 36761 ft | 507 kts | 308° |
| 2026-05-08 14:07 | 22.96552 | 55.05441 | 36761 ft | 507 kts | 308° |
| 2026-05-08 14:07 | 23.01131 | 54.99623 | 36761 ft | 507 kts | 308° |
| 2026-05-08 14:08 | 23.05712 | 54.93796 | 36758 ft | 507 kts | 308° |
| 2026-05-08 14:08 | 23.10289 | 54.87966 | 36753 ft | 508 kts | 307° |
| 2026-05-08 14:09 | 23.14869 | 54.82126 | 36758 ft | 508 kts | 307° |
| 2026-05-08 14:09 | 23.19448 | 54.76281 | 36755 ft | 508 kts | 307° |
| 2026-05-08 14:10 | 23.24025 | 54.70431 | 36764 ft | 508 kts | 307° |
| 2026-05-08 14:10 | 23.28599 | 54.64578 | 36767 ft | 508 kts | 307° |
| 2026-05-08 14:11 | 23.33176 | 54.58715 | 36754 ft | 508 kts | 307° |
| 2026-05-08 14:11 | 23.37753 | 54.52845 | 36777 ft | 508 kts | 307° |
| 2026-05-08 14:12 | 23.42322 | 54.46978 | 36775 ft | 508 kts | 307° |
| 2026-05-08 14:12 | 23.46895 | 54.41099 | 36771 ft | 508 kts | 307° |
| 2026-05-08 14:13 | 23.51461 | 54.35223 | 36775 ft | 508 kts | 307° |
| 2026-05-08 14:13 | 23.56026 | 54.29342 | 36781 ft | 508 kts | 307° |
| 2026-05-08 14:14 | 23.60584 | 54.23458 | 36779 ft | 508 kts | 305° |
| 2026-05-08 14:14 | 23.65129 | 54.17552 | 36778 ft | 508 kts | 307° |
| 2026-05-08 14:15 | 23.69693 | 54.11666 | 36778 ft | 508 kts | 307° |
| 2026-05-08 14:15 | 23.74259 | 54.05771 | 36795 ft | 508 kts | 307° |
| 2026-05-08 14:16 | 23.78785 | 53.99911 | 36786 ft | 508 kts | 307° |
| 2026-05-08 14:16 | 23.83337 | 53.94006 | 36790 ft | 508 kts | 307° |
| 2026-05-08 14:17 | 23.87886 | 53.88094 | 36790 ft | 508 kts | 306° |
| 2026-05-08 14:17 | 23.92432 | 53.82179 | 36793 ft | 508 kts | 306° |
| 2026-05-08 14:18 | 24.01609 | 53.70220 | 36799 ft | 508 kts | 306° |
| 2026-05-08 14:19 | 24.06152 | 53.64289 | 36794 ft | 508 kts | 306° |
| 2026-05-08 14:19 | 24.10660 | 53.58397 | 36793 ft | 508 kts | 306° |
| 2026-05-08 14:20 | 24.15182 | 53.52479 | 36633 ft | 501 kts | 306° |
| 2026-05-08 14:20 | 24.17412 | 53.49561 | 36321 ft | 501 kts | 306° |
| 2026-05-08 14:20 | 24.19658 | 53.46615 | 35951 ft | 506 kts | 306° |
| 2026-05-08 14:20 | 24.21909 | 53.43660 | 35518 ft | 503 kts | 306° |
| 2026-05-08 14:21 | 24.24140 | 53.40734 | 35047 ft | 498 kts | 306° |
| 2026-05-08 14:21 | 24.26354 | 53.37830 | 34586 ft | 495 kts | 306° |
| 2026-05-08 14:21 | 24.28559 | 53.34933 | 34138 ft | 495 kts | 306° |
| 2026-05-08 14:21 | 24.30763 | 53.32033 | 33669 ft | 496 kts | 306° |
| 2026-05-08 14:22 | 24.32973 | 53.29124 | 33132 ft | 497 kts | 306° |
| 2026-05-08 14:22 | 24.35190 | 53.26204 | 32604 ft | 498 kts | 306° |
| 2026-05-08 14:22 | 24.37404 | 53.23287 | 32093 ft | 497 kts | 306° |
| 2026-05-08 14:22 | 24.39609 | 53.20383 | 31584 ft | 494 kts | 306° |
| 2026-05-08 14:23 | 24.41801 | 53.17495 | 31094 ft | 490 kts | 306° |
| 2026-05-08 14:23 | 24.43971 | 53.14635 | 30604 ft | 486 kts | 306° |
| 2026-05-08 14:23 | 24.46124 | 53.11795 | 30122 ft | 481 kts | 306° |
| 2026-05-08 14:23 | 24.48251 | 53.08986 | 29605 ft | 476 kts | 306° |
| 2026-05-08 14:24 | 24.50358 | 53.06203 | 29052 ft | 471 kts | 306° |
| 2026-05-08 14:24 | 24.52439 | 53.03449 | 28505 ft | 466 kts | 306° |
| 2026-05-08 14:24 | 24.54500 | 53.00722 | 27970 ft | 462 kts | 306° |
| 2026-05-08 14:24 | 24.55393 | 52.99539 | 27737 ft | 460 kts | 306° |
| 2026-05-08 14:25 | 24.56576 | 52.97972 | 27432 ft | 457 kts | 306° |
| 2026-05-08 14:25 | 24.57371 | 52.96919 | 27235 ft | 455 kts | 306° |
| 2026-05-08 14:25 | 24.59382 | 52.94253 | 26722 ft | 451 kts | 306° |
| 2026-05-08 14:25 | 24.61371 | 52.91615 | 26222 ft | 447 kts | 306° |
| 2026-05-08 14:26 | 24.63344 | 52.88998 | 25725 ft | 442 kts | 306° |
| 2026-05-08 14:26 | 24.65296 | 52.86407 | 25244 ft | 438 kts | 306° |
| 2026-05-08 14:26 | 24.67230 | 52.83837 | 24763 ft | 434 kts | 306° |
| 2026-05-08 14:26 | 24.69145 | 52.81292 | 24299 ft | 430 kts | 307° |
| 2026-05-08 14:27 | 24.71044 | 52.78767 | 23832 ft | 426 kts | 307° |
| 2026-05-08 14:27 | 24.72923 | 52.76267 | 23377 ft | 422 kts | 307° |
| 2026-05-08 14:27 | 24.74785 | 52.73789 | 22854 ft | 418 kts | 307° |
| 2026-05-08 14:27 | 24.76623 | 52.71344 | 22459 ft | 411 kts | 307° |
| 2026-05-08 14:28 | 24.78400 | 52.68979 | 22188 ft | 401 kts | 307° |
| 2026-05-08 14:28 | 24.80152 | 52.66647 | 21963 ft | 390 kts | 307° |
| 2026-05-08 14:28 | 24.81707 | 52.64264 | 21745 ft | 377 kts | 297° |
| 2026-05-08 14:28 | 24.82777 | 52.61691 | 21434 ft | 365 kts | 285° |
| 2026-05-08 14:29 | 24.83317 | 52.58980 | 20910 ft | 362 kts | 275° |
| 2026-05-08 14:29 | 24.83660 | 52.56234 | 20347 ft | 362 kts | 275° |
| 2026-05-08 14:29 | 24.83983 | 52.53477 | 19812 ft | 364 kts | 277° |
| 2026-05-08 14:29 | 24.84583 | 52.50768 | 19282 ft | 365 kts | 284° |
| 2026-05-08 14:30 | 24.85331 | 52.48090 | 18763 ft | 366 kts | 285° |
| 2026-05-08 14:30 | 24.86112 | 52.45423 | 18253 ft | 366 kts | 285° |
| 2026-05-08 14:30 | 24.86906 | 52.42758 | 17673 ft | 366 kts | 286° |
| 2026-05-08 14:30 | 24.87705 | 52.40098 | 17096 ft | 366 kts | 286° |
| 2026-05-08 14:31 | 24.88506 | 52.37442 | 16540 ft | 366 kts | 285° |
| 2026-05-08 14:31 | 24.89309 | 52.34787 | 15970 ft | 365 kts | 285° |
| 2026-05-08 14:31 | 24.90110 | 52.32138 | 15417 ft | 364 kts | 285° |
| 2026-05-08 14:32 | 24.91707 | 52.26855 | 14347 ft | 362 kts | 285° |
| 2026-05-08 14:32 | 24.92502 | 52.24222 | 13824 ft | 361 kts | 285° |
| 2026-05-08 14:32 | 24.93293 | 52.21599 | 13267 ft | 360 kts | 285° |
| 2026-05-08 14:32 | 24.94080 | 52.18989 | 12689 ft | 358 kts | 286° |
| 2026-05-08 14:33 | 24.94865 | 52.16389 | 12122 ft | 357 kts | 285° |
| 2026-05-08 14:33 | 24.95642 | 52.13802 | 11560 ft | 354 kts | 286° |
| 2026-05-08 14:33 | 24.96414 | 52.11234 | 11016 ft | 352 kts | 287° |
| 2026-05-08 14:33 | 24.97181 | 52.08684 | 10483 ft | 349 kts | 287° |
| 2026-05-08 14:34 | 24.97940 | 52.06156 | 9946 ft | 346 kts | 288° |
| 2026-05-08 14:34 | 24.98692 | 52.03654 | 9418 ft | 341 kts | 289° |
| 2026-05-08 14:34 | 24.99431 | 52.01197 | 8962 ft | 334 kts | 289° |
| 2026-05-08 14:34 | 24.99910 | 51.99601 | 8674 ft | 329 kts | 289° |
| 2026-05-08 14:35 | 25.00858 | 51.97351 | 8244 ft | 321 kts | 306° |
| 2026-05-08 14:35 | 25.02223 | 51.95430 | 7804 ft | 315 kts | 306° |
| 2026-05-08 14:35 | 25.03036 | 51.93246 | 7409 ft | 308 kts | 280° |
| 2026-05-08 14:35 | 25.03314 | 51.90928 | 7011 ft | 302 kts | 278° |
| 2026-05-08 14:36 | 25.03650 | 51.88669 | 6601 ft | 296 kts | 282° |
| 2026-05-08 14:36 | 25.04106 | 51.86451 | 6047 ft | 297 kts | 284° |
| 2026-05-08 14:36 | 25.04644 | 51.84251 | 5447 ft | 298 kts | 287° |
| 2026-05-08 14:36 | 25.05399 | 51.82137 | 4921 ft | 295 kts | 298° |
| 2026-05-08 14:37 | 25.06411 | 51.80199 | 4504 ft | 289 kts | 303° |
| 2026-05-08 14:37 | 25.07442 | 51.78301 | 4049 ft | 287 kts | 302° |
| 2026-05-08 14:37 | 25.08446 | 51.76417 | 3646 ft | 283 kts | 302° |
| 2026-05-08 14:37 | 25.09448 | 51.74572 | 3251 ft | 278 kts | 307° |
| 2026-05-08 14:38 | 25.10585 | 51.72898 | 3013 ft | 267 kts | 312° |
| 2026-05-08 14:38 | 25.11721 | 51.71337 | 2902 ft | 255 kts | 312° |
| 2026-05-08 14:38 | 25.12833 | 51.69850 | 2622 ft | 248 kts | 315° |
| 2026-05-08 14:38 | 25.14082 | 51.68610 | 2336 ft | 238 kts | 327° |
| 2026-05-08 14:39 | 25.15454 | 51.67618 | 2009 ft | 234 kts | 332° |
| 2026-05-08 14:39 | 25.16840 | 51.66785 | 1692 ft | 221 kts | 337° |
| 2026-05-08 14:39 | 25.18171 | 51.66080 | 1515 ft | 201 kts | 338° |
| 2026-05-08 14:39 | 25.19358 | 51.65449 | 1407 ft | 179 kts | 336° |
| 2026-05-08 14:40 | 25.20457 | 51.64942 | 1088 ft | 167 kts | 346° |
| 2026-05-08 14:40 | 25.21507 | 51.64473 | 854 ft | 159 kts | 340° |
| 2026-05-08 14:40 | 25.22490 | 51.64042 | 664 ft | 144 kts | 337° |
| 2026-05-08 14:40 | 25.23380 | 51.63640 | 499 ft | 135 kts | 338° |
| 2026-05-08 14:41 | 25.24259 | 51.63235 | 321 ft | 141 kts | 337° |
| 2026-05-08 14:41 | 25.25173 | 51.62833 | 160 ft | 145 kts | 334° |
| 2026-05-08 14:41 | 25.26095 | 51.62436 | 63 ft | 137 kts | 336° |
| 2026-05-08 14:41 | 25.26915 | 51.62073 | 30 ft | 115 kts | 339° |
| 2026-05-08 14:42 | 25.27414 | 51.61856 | 33 ft | 34 kts | 338° |
| 2026-05-08 14:42 | 25.27456 | 51.61838 | 33 ft | 0 kts | 338° |
| 2026-05-08 14:42 | 25.27478 | 51.61827 | 34 ft | 7 kts | 336° |
| 2026-05-08 14:42 | 25.27530 | 51.61799 | 34 ft | 9 kts | 333° |
| 2026-05-08 14:43 | 25.27584 | 51.61747 | 33 ft | 11 kts | 297° |
| 2026-05-08 14:43 | 25.27574 | 51.61637 | 34 ft | 25 kts | 242° |
| 2026-05-08 14:43 | 25.27511 | 51.61512 | 35 ft | 19 kts | 236° |
| 2026-05-08 14:43 | 25.27488 | 51.61483 | 36 ft | 0 kts | 227° |
| 2026-05-08 14:44 | 25.27485 | 51.61480 | 36 ft | 4 kts | 227° |
| 2026-05-08 14:44 | 25.27446 | 51.61441 | 36 ft | 7 kts | 207° |
| 2026-05-08 14:44 | 25.27410 | 51.61449 | 36 ft | 6 kts | 158° |
| 2026-05-08 14:45 | 25.27371 | 51.61467 | 36 ft | 8 kts | 158° |
| 2026-05-08 14:45 | 25.27344 | 51.61476 | 36 ft | 0 kts | 172° |
| 2026-05-08 14:45 | 25.27335 | 51.61471 | 36 ft | 6 kts | 201° |
| 2026-05-08 14:46 | 25.27313 | 51.61447 | 36 ft | 0 kts | 245° |